sensor_id;sensor_type;location;lat;lon;timestamp;pressure;altitude;pressure_sealevel;temperature;humidity
40205;BME280;26963;42.666;23.366;2023-03-13T00:02:01;95163.19;;;5.43;39.61
40205;BME280;26963;42.666;23.366;2023-03-13T00:04:26;95176.53;;;5.53;39.31
40205;BME280;26963;42.666;23.366;2023-03-13T00:06:52;95175.47;;;5.54;39.38
40205;BME280;26963;42.666;23.366;2023-03-13T00:09:17;95114.34;;;5.06;39.95
40205;BME280;26963;42.666;23.366;2023-03-13T00:11:43;95108.09;;;4.90;39.89
40205;BME280;26963;42.666;23.366;2023-03-13T00:14:10;95099.69;;;4.98;39.67
40205;BME280;26963;42.666;23.366;2023-03-13T00:16:35;95112.72;;;5.05;39.86
40205;BME280;26963;42.666;23.366;2023-03-13T00:19:03;95127.91;;;5.10;40.69
40205;BME280;26963;42.666;23.366;2023-03-13T00:21:29;95158.81;;;5.26;40.68
40205;BME280;26963;42.666;23.366;2023-03-13T00:23:55;95189.97;;;5.41;40.40
40205;BME280;26963;42.666;23.366;2023-03-13T00:26:23;95193.94;;;5.38;40.16
40205;BME280;26963;42.666;23.366;2023-03-13T00:28:50;95194.44;;;5.35;39.87
40205;BME280;26963;42.666;23.366;2023-03-13T00:33:47;95165.63;;;5.17;39.90
40205;BME280;26963;42.666;23.366;2023-03-13T00:38:45;95185.13;;;5.33;39.59
40205;BME280;26963;42.666;23.366;2023-03-13T00:41:16;95127.78;;;4.94;39.52
40205;BME280;26963;42.666;23.366;2023-03-13T00:43:43;95126.41;;;4.92;40.26
40205;BME280;26963;42.666;23.366;2023-03-13T00:46:09;95178.34;;;5.15;40.81
40205;BME280;26963;42.666;23.366;2023-03-13T00:48:36;95200.66;;;5.19;40.60
40205;BME280;26963;42.666;23.366;2023-03-13T00:51:02;95126.50;;;4.74;40.57
40205;BME280;26963;42.666;23.366;2023-03-13T00:53:29;95120.72;;;4.78;40.60
40205;BME280;26963;42.666;23.366;2023-03-13T00:55:59;95192.94;;;5.17;40.27
40205;BME280;26963;42.666;23.366;2023-03-13T00:58:27;95124.94;;;4.79;40.35
40205;BME280;26963;42.666;23.366;2023-03-13T01:00:53;95135.13;;;4.87;40.47
40205;BME280;26963;42.666;23.366;2023-03-13T01:03:20;95134.03;;;4.83;40.51
40205;BME280;26963;42.666;23.366;2023-03-13T01:05:57;95209.66;;;5.18;40.73
40205;BME280;26963;42.666;23.366;2023-03-13T01:08:23;95169.25;;;5.05;40.10
40205;BME280;26963;42.666;23.366;2023-03-13T01:10:48;95180.91;;;5.04;39.88
40205;BME280;26963;42.666;23.366;2023-03-13T01:13:14;95172.38;;;5.02;39.43
40205;BME280;26963;42.666;23.366;2023-03-13T01:15:39;95185.38;;;5.04;39.72
40205;BME280;26963;42.666;23.366;2023-03-13T01:18:05;95194.47;;;5.08;39.81
40205;BME280;26963;42.666;23.366;2023-03-13T01:20:31;95176.03;;;4.96;40.03
40205;BME280;26963;42.666;23.366;2023-03-13T01:22:59;95186.25;;;5.10;40.13
40205;BME280;26963;42.666;23.366;2023-03-13T01:25:25;95185.19;;;5.11;39.68
40205;BME280;26963;42.666;23.366;2023-03-13T01:27:50;95182.72;;;5.04;40.27
40205;BME280;26963;42.666;23.366;2023-03-13T01:30:16;95177.63;;;4.97;39.93
40205;BME280;26963;42.666;23.366;2023-03-13T01:32:41;95174.44;;;4.95;40.85
40205;BME280;26963;42.666;23.366;2023-03-13T01:35:07;95184.44;;;4.88;40.45
40205;BME280;26963;42.666;23.366;2023-03-13T01:37:33;95195.63;;;4.95;40.90
40205;BME280;26963;42.666;23.366;2023-03-13T01:39:58;95203.38;;;4.97;40.37
40205;BME280;26963;42.666;23.366;2023-03-13T01:42:24;95182.31;;;4.90;40.92
40205;BME280;26963;42.666;23.366;2023-03-13T01:44:54;95219.50;;;4.95;40.16
40205;BME280;26963;42.666;23.366;2023-03-13T01:47:20;95182.91;;;4.70;40.44
40205;BME280;26963;42.666;23.366;2023-03-13T01:49:49;95199.38;;;4.72;40.02
40205;BME280;26963;42.666;23.366;2023-03-13T01:52:20;95144.13;;;4.36;40.23
40205;BME280;26963;42.666;23.366;2023-03-13T01:54:51;95210.09;;;4.82;40.77
40205;BME280;26963;42.666;23.366;2023-03-13T01:57:29;95207.31;;;4.72;41.01
40205;BME280;26963;42.666;23.366;2023-03-13T02:02:26;95198.81;;;4.70;41.10
40205;BME280;26963;42.666;23.366;2023-03-13T02:04:56;95226.44;;;4.74;41.30
40205;BME280;26963;42.666;23.366;2023-03-13T02:07:38;95207.44;;;4.82;41.00
40205;BME280;26963;42.666;23.366;2023-03-13T02:10:05;95214.53;;;4.77;40.81
40205;BME280;26963;42.666;23.366;2023-03-13T02:12:34;95211.22;;;4.64;41.25
40205;BME280;26963;42.666;23.366;2023-03-13T02:15:06;95207.94;;;4.57;41.31
40205;BME280;26963;42.666;23.366;2023-03-13T02:17:33;95200.84;;;4.40;41.44
40205;BME280;26963;42.666;23.366;2023-03-13T02:20:00;95212.16;;;4.14;41.75
40205;BME280;26963;42.666;23.366;2023-03-13T02:22:43;95207.84;;;4.07;42.63
40205;BME280;26963;42.666;23.366;2023-03-13T02:27:53;95211.84;;;3.54;44.49
40205;BME280;26963;42.666;23.366;2023-03-13T02:30:20;95159.94;;;3.19;44.36
40205;BME280;26963;42.666;23.366;2023-03-13T02:32:45;95215.44;;;3.48;44.83
40205;BME280;26963;42.666;23.366;2023-03-13T02:35:14;95188.00;;;3.20;45.29
40205;BME280;26963;42.666;23.366;2023-03-13T02:37:41;95250.69;;;3.53;45.38
40205;BME280;26963;42.666;23.366;2023-03-13T02:40:11;95249.41;;;3.56;45.67
40205;BME280;26963;42.666;23.366;2023-03-13T02:42:40;95259.53;;;3.59;45.88
40205;BME280;26963;42.666;23.366;2023-03-13T02:45:07;95203.72;;;3.26;45.78
40205;BME280;26963;42.666;23.366;2023-03-13T02:47:33;95265.78;;;3.70;45.53
40205;BME280;26963;42.666;23.366;2023-03-13T02:49:58;95205.56;;;3.26;45.55
40205;BME280;26963;42.666;23.366;2023-03-13T02:52:27;95291.00;;;3.72;46.10
40205;BME280;26963;42.666;23.366;2023-03-13T02:55:02;95267.63;;;3.69;45.98
40205;BME280;26963;42.666;23.366;2023-03-13T02:57:29;95238.47;;;3.47;45.92
40205;BME280;26963;42.666;23.366;2023-03-13T02:59:56;95282.31;;;3.60;46.32
40205;BME280;26963;42.666;23.366;2023-03-13T03:02:22;95210.22;;;2.90;47.50
40205;BME280;26963;42.666;23.366;2023-03-13T03:04:47;95280.78;;;3.18;47.48
40205;BME280;26963;42.666;23.366;2023-03-13T03:07:13;95257.13;;;2.83;48.45
40205;BME280;26963;42.666;23.366;2023-03-13T03:09:38;95269.56;;;2.70;48.63
40205;BME280;26963;42.666;23.366;2023-03-13T03:12:04;95290.13;;;2.68;49.71
40205;BME280;26963;42.666;23.366;2023-03-13T03:14:30;95283.16;;;2.50;49.82
40205;BME280;26963;42.666;23.366;2023-03-13T03:16:55;95229.50;;;1.97;50.70
40205;BME280;26963;42.666;23.366;2023-03-13T03:19:21;95062.25;;;0.56;50.69
40205;BME280;26963;42.666;23.366;2023-03-13T03:21:49;95290.78;;;1.99;51.32
40205;BME280;26963;42.666;23.366;2023-03-13T03:24:15;95263.56;;;1.87;51.13
40205;BME280;26963;42.666;23.366;2023-03-13T03:26:40;95179.34;;;1.26;51.62
40205;BME280;26963;42.666;23.366;2023-03-13T03:29:06;95324.28;;;2.10;51.76
40205;BME280;26963;42.666;23.366;2023-03-13T03:31:32;95338.63;;;2.15;51.42
40205;BME280;26963;42.666;23.366;2023-03-13T03:33:58;95261.47;;;1.77;51.44
40205;BME280;26963;42.666;23.366;2023-03-13T03:36:27;95332.09;;;2.29;50.75
40205;BME280;26963;42.666;23.366;2023-03-13T03:38:53;95327.16;;;2.33;50.78
40205;BME280;26963;42.666;23.366;2023-03-13T03:41:19;95276.44;;;2.07;50.84
40205;BME280;26963;42.666;23.366;2023-03-13T03:43:45;95261.38;;;2.07;50.39
40205;BME280;26963;42.666;23.366;2023-03-13T03:46:12;95252.22;;;1.98;50.24
40205;BME280;26963;42.666;23.366;2023-03-13T03:48:37;95287.31;;;2.22;50.35
40205;BME280;26963;42.666;23.366;2023-03-13T03:51:03;95277.78;;;2.21;49.88
40205;BME280;26963;42.666;23.366;2023-03-13T03:53:29;95370.66;;;2.77;49.70
40205;BME280;26963;42.666;23.366;2023-03-13T03:55:57;95298.56;;;2.41;49.21
40205;BME280;26963;42.666;23.366;2023-03-13T03:58:23;95351.78;;;2.86;49.30
40205;BME280;26963;42.666;23.366;2023-03-13T04:00:48;95295.09;;;2.53;49.36
40205;BME280;26963;42.666;23.366;2023-03-13T04:03:14;95371.44;;;3.02;48.88
40205;BME280;26963;42.666;23.366;2023-03-13T04:05:41;95335.25;;;2.78;48.73
40205;BME280;26963;42.666;23.366;2023-03-13T04:08:07;95329.31;;;2.71;49.36
40205;BME280;26963;42.666;23.366;2023-03-13T04:10:32;95348.81;;;2.94;49.36
40205;BME280;26963;42.666;23.366;2023-03-13T04:12:58;95383.72;;;3.08;48.50
40205;BME280;26963;42.666;23.366;2023-03-13T04:15:23;95310.03;;;2.59;48.19
40205;BME280;26963;42.666;23.366;2023-03-13T04:17:49;95394.06;;;3.09;48.56
40205;BME280;26963;42.666;23.366;2023-03-13T04:20:15;95364.31;;;2.90;48.71
40205;BME280;26963;42.666;23.366;2023-03-13T04:22:40;95345.03;;;2.78;48.69
40205;BME280;26963;42.666;23.366;2023-03-13T04:25:07;95365.34;;;2.89;48.42
40205;BME280;26963;42.666;23.366;2023-03-13T04:27:33;95350.56;;;2.76;48.47
40205;BME280;26963;42.666;23.366;2023-03-13T04:29:59;95389.78;;;3.08;48.64
40205;BME280;26963;42.666;23.366;2023-03-13T04:32:24;95344.69;;;2.74;48.58
40205;BME280;26963;42.666;23.366;2023-03-13T04:34:50;95368.78;;;2.90;48.50
40205;BME280;26963;42.666;23.366;2023-03-13T04:37:16;95399.91;;;3.12;48.64
40205;BME280;26963;42.666;23.366;2023-03-13T04:39:41;95412.66;;;3.15;48.23
40205;BME280;26963;42.666;23.366;2023-03-13T04:42:11;95243.13;;;2.06;48.16
40205;BME280;26963;42.666;23.366;2023-03-13T04:44:37;95430.25;;;3.21;48.23
40205;BME280;26963;42.666;23.366;2023-03-13T04:47:03;95428.16;;;3.23;48.01
40205;BME280;26963;42.666;23.366;2023-03-13T04:49:29;95434.50;;;3.22;47.96
40205;BME280;26963;42.666;23.366;2023-03-13T04:51:55;95431.03;;;3.21;47.90
40205;BME280;26963;42.666;23.366;2023-03-13T04:54:24;95427.75;;;3.14;47.69
40205;BME280;26963;42.666;23.366;2023-03-13T04:56:49;95371.81;;;2.82;48.22
40205;BME280;26963;42.666;23.366;2023-03-13T04:59:15;95399.34;;;2.98;48.12
40205;BME280;26963;42.666;23.366;2023-03-13T05:01:41;95403.94;;;3.02;47.70
40205;BME280;26963;42.666;23.366;2023-03-13T05:04:08;95445.88;;;3.22;47.63
40205;BME280;26963;42.666;23.366;2023-03-13T05:06:34;95416.59;;;3.00;47.93
40205;BME280;26963;42.666;23.366;2023-03-13T05:08:59;95433.81;;;3.15;47.80
40205;BME280;26963;42.666;23.366;2023-03-13T05:11:25;95424.84;;;3.16;48.51
40205;BME280;26963;42.666;23.366;2023-03-13T05:13:51;95388.56;;;2.99;48.03
40205;BME280;26963;42.666;23.366;2023-03-13T05:16:19;95442.06;;;3.30;48.05
40205;BME280;26963;42.666;23.366;2023-03-13T05:18:44;95422.66;;;3.13;48.30
40205;BME280;26963;42.666;23.366;2023-03-13T05:21:10;95456.31;;;3.29;47.87
40205;BME280;26963;42.666;23.366;2023-03-13T05:23:36;95455.53;;;3.29;47.84
40205;BME280;26963;42.666;23.366;2023-03-13T05:26:01;95438.84;;;3.28;47.74
40205;BME280;26963;42.666;23.366;2023-03-13T05:28:27;95464.34;;;3.34;47.53
40205;BME280;26963;42.666;23.366;2023-03-13T05:30:52;95443.66;;;3.31;47.75
40205;BME280;26963;42.666;23.366;2023-03-13T05:33:18;95467.34;;;3.50;47.48
40205;BME280;26963;42.666;23.366;2023-03-13T05:35:47;95467.66;;;3.53;47.64
40205;BME280;26963;42.666;23.366;2023-03-13T05:38:13;95445.38;;;3.37;47.68
40205;BME280;26963;42.666;23.366;2023-03-13T05:40:39;95482.38;;;3.61;48.33
40205;BME280;26963;42.666;23.366;2023-03-13T05:43:04;95406.78;;;3.24;48.24
40205;BME280;26963;42.666;23.366;2023-03-13T05:45:30;95421.09;;;3.40;47.54
40205;BME280;26963;42.666;23.366;2023-03-13T05:47:56;95487.38;;;3.86;46.55
40205;BME280;26963;42.666;23.366;2023-03-13T05:50:23;95429.56;;;3.54;46.27
40205;BME280;26963;42.666;23.366;2023-03-13T05:52:49;95479.97;;;3.88;46.30
40205;BME280;26963;42.666;23.366;2023-03-13T05:55:15;95392.28;;;3.27;46.24
40205;BME280;26963;42.666;23.366;2023-03-13T05:57:45;95476.91;;;3.80;46.34
40205;BME280;26963;42.666;23.366;2023-03-13T06:00:12;95438.66;;;3.58;46.20
40205;BME280;26963;42.666;23.366;2023-03-13T06:02:38;95461.75;;;3.75;46.59
40205;BME280;26963;42.666;23.366;2023-03-13T06:05:04;95489.97;;;3.98;46.02
40205;BME280;26963;42.666;23.366;2023-03-13T06:07:29;95461.69;;;3.87;46.15
40205;BME280;26963;42.666;23.366;2023-03-13T06:09:55;95494.31;;;4.04;45.94
40205;BME280;26963;42.666;23.366;2023-03-13T06:12:20;95489.97;;;3.98;45.75
40205;BME280;26963;42.666;23.366;2023-03-13T06:14:46;95466.97;;;3.87;45.98
40205;BME280;26963;42.666;23.366;2023-03-13T06:17:11;95428.88;;;3.59;46.17
40205;BME280;26963;42.666;23.366;2023-03-13T06:19:37;95486.19;;;3.94;46.44
40205;BME280;26963;42.666;23.366;2023-03-13T06:22:02;95270.91;;;2.32;46.95
40205;BME280;26963;42.666;23.366;2023-03-13T06:24:28;95494.88;;;3.78;47.37
40205;BME280;26963;42.666;23.366;2023-03-13T06:26:54;95493.72;;;3.73;48.22
40205;BME280;26963;42.666;23.366;2023-03-13T06:29:19;95469.03;;;3.56;47.71
40205;BME280;26963;42.666;23.366;2023-03-13T06:31:45;95503.97;;;3.70;47.56
40205;BME280;26963;42.666;23.366;2023-03-13T06:34:11;95490.88;;;3.63;47.54
40205;BME280;26963;42.666;23.366;2023-03-13T06:36:37;95465.72;;;3.49;48.41
40205;BME280;26963;42.666;23.366;2023-03-13T06:39:03;95479.72;;;3.61;48.21
40205;BME280;26963;42.666;23.366;2023-03-13T06:41:29;95400.78;;;3.29;48.72
40205;BME280;26963;42.666;23.366;2023-03-13T06:43:54;95486.91;;;4.06;47.46
40205;BME280;26963;42.666;23.366;2023-03-13T06:46:23;95473.03;;;4.96;45.68
40205;BME280;26963;42.666;23.366;2023-03-13T06:48:50;95476.19;;;6.21;43.11
40205;BME280;26963;42.666;23.366;2023-03-13T06:51:18;95471.03;;;7.55;40.58
40205;BME280;26963;42.666;23.366;2023-03-13T06:53:45;95468.97;;;8.67;37.38
40205;BME280;26963;42.666;23.366;2023-03-13T06:56:10;95462.31;;;9.86;35.30
40205;BME280;26963;42.666;23.366;2023-03-13T06:58:36;95464.38;;;10.84;33.06
40205;BME280;26963;42.666;23.366;2023-03-13T07:01:06;95459.19;;;11.28;31.92
40205;BME280;26963;42.666;23.366;2023-03-13T07:03:33;95420.84;;;11.56;30.82
40205;BME280;26963;42.666;23.366;2023-03-13T07:05:59;95458.06;;;12.64;29.82
40205;BME280;26963;42.666;23.366;2023-03-13T07:08:25;95457.88;;;13.40;28.30
40205;BME280;26963;42.666;23.366;2023-03-13T07:10:51;95455.94;;;14.38;26.99
40205;BME280;26963;42.666;23.366;2023-03-13T07:13:19;95378.16;;;14.73;25.90
40205;BME280;26963;42.666;23.366;2023-03-13T07:15:46;95447.25;;;15.00;25.16
40205;BME280;26963;42.666;23.366;2023-03-13T07:18:13;95453.53;;;15.19;25.14
40205;BME280;26963;42.666;23.366;2023-03-13T07:20:38;95453.78;;;15.71;24.76
40205;BME280;26963;42.666;23.366;2023-03-13T07:23:04;95394.09;;;15.64;24.39
40205;BME280;26963;42.666;23.366;2023-03-13T07:25:30;95443.63;;;16.35;23.63
40205;BME280;26963;42.666;23.366;2023-03-13T07:27:55;95438.41;;;16.73;23.35
40205;BME280;26963;42.666;23.366;2023-03-13T07:30:23;95448.56;;;16.85;22.59
40205;BME280;26963;42.666;23.366;2023-03-13T07:32:49;95440.47;;;17.59;22.15
40205;BME280;26963;42.666;23.366;2023-03-13T07:35:14;95460.66;;;17.05;22.57
40205;BME280;26963;42.666;23.366;2023-03-13T07:37:40;95389.97;;;17.33;21.99
40205;BME280;26963;42.666;23.366;2023-03-13T07:40:06;95441.88;;;17.18;22.46
40205;BME280;26963;42.666;23.366;2023-03-13T07:42:33;95444.59;;;17.09;21.95
40205;BME280;26963;42.666;23.366;2023-03-13T07:44:59;95404.31;;;17.25;21.89
40205;BME280;26963;42.666;23.366;2023-03-13T07:47:25;95422.75;;;18.30;20.96
40205;BME280;26963;42.666;23.366;2023-03-13T07:49:50;95439.19;;;19.10;20.37
40205;BME280;26963;42.666;23.366;2023-03-13T07:52:18;95404.47;;;19.61;19.67
40205;BME280;26963;42.666;23.366;2023-03-13T07:54:43;95387.94;;;19.66;19.35
40205;BME280;26963;42.666;23.366;2023-03-13T07:57:09;95436.19;;;20.60;18.73
40205;BME280;26963;42.666;23.366;2023-03-13T07:59:34;95412.94;;;21.19;18.29
40205;BME280;26963;42.666;23.366;2023-03-13T08:02:00;95417.78;;;21.70;17.62
40205;BME280;26963;42.666;23.366;2023-03-13T08:04:26;95374.03;;;21.79;17.61
40205;BME280;26963;42.666;23.366;2023-03-13T08:06:51;95404.78;;;20.75;17.50
40205;BME280;26963;42.666;23.366;2023-03-13T08:09:19;95404.78;;;20.75;18.00
40205;BME280;26963;42.666;23.366;2023-03-13T08:11:45;95403.03;;;21.11;17.66
40205;BME280;26963;42.666;23.366;2023-03-13T08:14:11;95420.94;;;21.12;17.47
40205;BME280;26963;42.666;23.366;2023-03-13T08:16:36;95424.03;;;20.69;18.02
40205;BME280;26963;42.666;23.366;2023-03-13T08:19:03;95421.00;;;20.99;17.94
40205;BME280;26963;42.666;23.366;2023-03-13T08:21:35;95402.13;;;21.51;17.30
40205;BME280;26963;42.666;23.366;2023-03-13T08:24:06;95432.72;;;22.28;17.26
40205;BME280;26963;42.666;23.366;2023-03-13T08:26:34;95417.09;;;22.60;16.49
40205;BME280;26963;42.666;23.366;2023-03-13T08:29:03;95412.22;;;22.89;16.23
40205;BME280;26963;42.666;23.366;2023-03-13T08:31:31;95419.69;;;22.02;16.35
40205;BME280;26963;42.666;23.366;2023-03-13T08:33:57;95417.66;;;21.82;16.90
40205;BME280;26963;42.666;23.366;2023-03-13T08:36:26;95432.31;;;21.46;17.21
40205;BME280;26963;42.666;23.366;2023-03-13T08:38:53;95363.63;;;20.48;17.80
40205;BME280;26963;42.666;23.366;2023-03-13T08:41:22;95429.34;;;20.66;18.12
40205;BME280;26963;42.666;23.366;2023-03-13T08:43:51;95388.38;;;19.81;18.28
40205;BME280;26963;42.666;23.366;2023-03-13T08:46:17;95404.09;;;19.50;19.22
40205;BME280;26963;42.666;23.366;2023-03-13T08:48:42;95362.59;;;18.58;19.63
40205;BME280;26963;42.666;23.366;2023-03-13T08:53:36;95306.66;;;16.61;21.15
40205;BME280;26963;42.666;23.366;2023-03-13T08:56:02;95388.34;;;16.06;22.61
40205;BME280;26963;42.666;23.366;2023-03-13T08:58:29;95201.19;;;14.42;23.10
40205;BME280;26963;42.666;23.366;2023-03-13T09:01:01;95429.50;;;15.71;23.59
40205;BME280;26963;42.666;23.366;2023-03-13T09:03:27;95345.72;;;15.19;23.89
40205;BME280;26963;42.666;23.366;2023-03-13T09:05:53;95341.03;;;15.33;24.21
40205;BME280;26963;42.666;23.366;2023-03-13T09:08:18;95422.78;;;16.00;23.54
40205;BME280;26963;42.666;23.366;2023-03-13T09:10:44;95417.53;;;15.86;23.53
40205;BME280;26963;42.666;23.366;2023-03-13T09:13:09;95422.81;;;15.60;23.92
40205;BME280;26963;42.666;23.366;2023-03-13T09:15:35;95421.38;;;15.22;24.31
40205;BME280;26963;42.666;23.366;2023-03-13T09:18:00;95412.72;;;15.03;24.91
40205;BME280;26963;42.666;23.366;2023-03-13T09:20:26;95424.25;;;14.58;24.83
40205;BME280;26963;42.666;23.366;2023-03-13T09:22:54;95409.63;;;14.13;25.53
40205;BME280;26963;42.666;23.366;2023-03-13T09:25:20;95328.28;;;13.57;26.35
40205;BME280;26963;42.666;23.366;2023-03-13T09:27:45;95415.56;;;14.38;25.73
40205;BME280;26963;42.666;23.366;2023-03-13T09:30:12;95411.53;;;14.49;25.92
40205;BME280;26963;42.666;23.366;2023-03-13T09:32:37;95408.16;;;14.07;25.47
40205;BME280;26963;42.666;23.366;2023-03-13T09:35:03;95401.28;;;13.64;26.15
40205;BME280;26963;42.666;23.366;2023-03-13T09:37:29;95398.19;;;13.57;26.18
40205;BME280;26963;42.666;23.366;2023-03-13T09:39:55;95387.00;;;13.64;26.39
40205;BME280;26963;42.666;23.366;2023-03-13T09:42:42;95398.75;;;13.54;26.33
40205;BME280;26963;42.666;23.366;2023-03-13T09:45:17;95186.53;;;11.96;26.40
40205;BME280;26963;42.666;23.366;2023-03-13T09:47:54;95403.34;;;13.53;26.74
40205;BME280;26963;42.666;23.366;2023-03-13T09:50:33;95416.22;;;13.24;27.14
40205;BME280;26963;42.666;23.366;2023-03-13T09:53:13;95410.47;;;13.16;27.62
40205;BME280;26963;42.666;23.366;2023-03-13T09:55:41;95415.34;;;13.14;27.20
40205;BME280;26963;42.666;23.366;2023-03-13T09:58:14;95410.03;;;12.95;27.62
40205;BME280;26963;42.666;23.366;2023-03-13T10:00:46;95333.53;;;12.46;27.28
40205;BME280;26963;42.666;23.366;2023-03-13T10:06:04;95412.41;;;12.97;27.78
40205;BME280;26963;42.666;23.366;2023-03-13T10:08:32;95405.09;;;13.16;28.00
40205;BME280;26963;42.666;23.366;2023-03-13T10:11:33;95385.81;;;13.42;27.67
40205;BME280;26963;42.666;23.366;2023-03-13T10:19:38;95379.81;;;13.03;27.57
40205;BME280;26963;42.666;23.366;2023-03-13T10:22:14;95329.25;;;12.92;27.38
40205;BME280;26963;42.666;23.366;2023-03-13T10:25:06;95370.06;;;13.35;27.83
40205;BME280;26963;42.666;23.366;2023-03-13T10:27:29;95312.84;;;13.21;26.86
40205;BME280;26963;42.666;23.366;2023-03-13T10:29:54;95356.13;;;13.75;27.01
40205;BME280;26963;42.666;23.366;2023-03-13T10:32:20;95348.97;;;13.70;26.62
40205;BME280;26963;42.666;23.366;2023-03-13T10:37:30;95340.81;;;13.34;26.82
40205;BME280;26963;42.666;23.366;2023-03-13T10:42:41;95330.75;;;13.12;26.86
40205;BME280;26963;42.666;23.366;2023-03-13T10:45:14;95317.06;;;12.66;27.70
40205;BME280;26963;42.666;23.366;2023-03-13T10:47:40;95342.72;;;12.59;28.15
40205;BME280;26963;42.666;23.366;2023-03-13T10:50:06;95345.94;;;12.75;28.22
40205;BME280;26963;42.666;23.366;2023-03-13T10:52:46;95332.66;;;12.97;27.53
40205;BME280;26963;42.666;23.366;2023-03-13T10:55:16;95339.22;;;13.05;27.47
40205;BME280;26963;42.666;23.366;2023-03-13T10:57:57;95315.44;;;13.12;27.93
40205;BME280;26963;42.666;23.366;2023-03-13T11:00:36;95325.78;;;13.33;27.77
40205;BME280;26963;42.666;23.366;2023-03-13T11:03:17;95319.31;;;13.62;27.53
40205;BME280;26963;42.666;23.366;2023-03-13T11:05:53;95314.56;;;13.81;27.26
40205;BME280;26963;42.666;23.366;2023-03-13T11:08:27;95251.03;;;13.35;26.73
40205;BME280;26963;42.666;23.366;2023-03-13T11:10:57;95303.00;;;13.44;26.93
40205;BME280;26963;42.666;23.366;2023-03-13T11:13:28;95277.91;;;13.21;27.46
40205;BME280;26963;42.666;23.366;2023-03-13T11:15:57;95295.25;;;13.29;27.73
40205;BME280;26963;42.666;23.366;2023-03-13T11:24:39;95286.47;;;12.81;27.82
40205;BME280;26963;42.666;23.366;2023-03-13T11:32:53;95264.31;;;13.03;28.21
40205;BME280;26963;42.666;23.366;2023-03-13T11:35:44;95277.53;;;13.28;27.44
40205;BME280;26963;42.666;23.366;2023-03-13T11:38:22;95199.78;;;12.67;27.81
40205;BME280;26963;42.666;23.366;2023-03-13T11:41:13;95252.66;;;13.08;27.96
40205;BME280;26963;42.666;23.366;2023-03-13T11:52:03;95231.44;;;13.71;26.68
40205;BME280;26963;42.666;23.366;2023-03-13T11:57:07;95223.50;;;13.15;28.25
40205;BME280;26963;42.666;23.366;2023-03-13T12:02:36;95232.97;;;12.99;28.66
40205;BME280;26963;42.666;23.366;2023-03-13T12:05:05;95228.00;;;13.06;28.32
40205;BME280;26963;42.666;23.366;2023-03-13T12:07:37;95216.25;;;12.74;28.51
40205;BME280;26963;42.666;23.366;2023-03-13T12:15:20;95213.09;;;12.72;28.49
40205;BME280;26963;42.666;23.366;2023-03-13T12:18:02;95158.59;;;12.57;28.11
40205;BME280;26963;42.666;23.366;2023-03-13T12:20:41;95138.63;;;12.64;28.06
40205;BME280;26963;42.666;23.366;2023-03-13T12:23:19;95196.84;;;13.19;27.95
40205;BME280;26963;42.666;23.366;2023-03-13T12:25:53;95116.97;;;12.97;27.75
40205;BME280;26963;42.666;23.366;2023-03-13T12:39:29;95184.03;;;13.75;27.42
40205;BME280;26963;42.666;23.366;2023-03-13T12:42:21;95189.16;;;13.63;27.36
40205;BME280;26963;42.666;23.366;2023-03-13T12:44:47;95147.44;;;13.29;27.02
40205;BME280;26963;42.666;23.366;2023-03-13T12:47:22;95093.75;;;12.92;27.27
40205;BME280;26963;42.666;23.366;2023-03-13T12:49:57;95121.75;;;13.00;27.60
40205;BME280;26963;42.666;23.366;2023-03-13T13:00:03;95158.56;;;12.99;27.87
40205;BME280;26963;42.666;23.366;2023-03-13T13:02:37;95107.50;;;12.49;28.14
40205;BME280;26963;42.666;23.366;2023-03-13T13:05:03;95070.47;;;12.23;28.32
40205;BME280;26963;42.666;23.366;2023-03-13T13:07:31;95177.88;;;12.87;28.54
40205;BME280;26963;42.666;23.366;2023-03-13T13:12:46;95104.66;;;12.45;27.98
40205;BME280;26963;42.666;23.366;2023-03-13T13:15:16;95188.41;;;12.84;28.53
40205;BME280;26963;42.666;23.366;2023-03-13T13:17:52;95182.97;;;12.75;28.30
40205;BME280;26963;42.666;23.366;2023-03-13T13:20:30;95179.69;;;12.78;28.81
40205;BME280;26963;42.666;23.366;2023-03-13T13:23:30;95176.09;;;12.69;29.06
40205;BME280;26963;42.666;23.366;2023-03-13T13:28:59;95185.84;;;12.65;28.69
40205;BME280;26963;42.666;23.366;2023-03-13T13:31:58;95131.56;;;12.12;29.18
40205;BME280;26963;42.666;23.366;2023-03-13T13:37:23;95161.78;;;12.32;29.43
40205;BME280;26963;42.666;23.366;2023-03-13T13:39:52;95148.88;;;12.20;29.66
40205;BME280;26963;42.666;23.366;2023-03-13T13:44:56;95134.53;;;12.24;29.67
40205;BME280;26963;42.666;23.366;2023-03-13T13:47:25;95168.56;;;12.43;29.52
40205;BME280;26963;42.666;23.366;2023-03-13T13:49:57;95105.34;;;12.09;29.63
40205;BME280;26963;42.666;23.366;2023-03-13T13:52:36;95167.78;;;12.56;29.57
40205;BME280;26963;42.666;23.366;2023-03-13T13:55:28;95160.59;;;12.66;28.80
40205;BME280;26963;42.666;23.366;2023-03-13T13:57:48;95159.88;;;12.74;28.95
40205;BME280;26963;42.666;23.366;2023-03-13T14:00:19;95147.88;;;12.57;29.29
40205;BME280;26963;42.666;23.366;2023-03-13T14:02:55;95124.63;;;12.39;29.46
40205;BME280;26963;42.666;23.366;2023-03-13T14:05:24;95118.25;;;12.35;28.98
40205;BME280;26963;42.666;23.366;2023-03-13T14:08:24;95143.41;;;12.39;29.49
40205;BME280;26963;42.666;23.366;2023-03-13T14:13:38;95117.06;;;12.13;29.66
40205;BME280;26963;42.666;23.366;2023-03-13T14:16:23;95108.13;;;12.04;29.91
40205;BME280;26963;42.666;23.366;2023-03-13T14:18:50;95098.34;;;11.94;29.59
40205;BME280;26963;42.666;23.366;2023-03-13T14:21:21;95114.97;;;12.10;29.70
40205;BME280;26963;42.666;23.366;2023-03-13T14:23:48;95127.09;;;12.21;29.92
40205;BME280;26963;42.666;23.366;2023-03-13T14:26:16;95042.13;;;11.75;29.81
40205;BME280;26963;42.666;23.366;2023-03-13T14:28:47;95142.69;;;12.47;29.40
40205;BME280;26963;42.666;23.366;2023-03-13T14:31:30;95090.84;;;12.24;29.46
40205;BME280;26963;42.666;23.366;2023-03-13T14:33:57;95124.63;;;12.53;29.37